Airfield :
LOGIN :

Register | Disclaimer

   EN    FR    IT 

 










Legend :    VFR   Marginal VFR   IFR   Intensive IFR   Very Intensive IFR
Visi :
Ceiling :
>= 8 km
>= 3000ft
5 to 8 km
1000 to 3000 ft
1500m to 5 km
500 to 1000 ft
800 to 1500m
200 to 500 ft
< 800m
< 200 ft
Symbols :   Thunderstorms  Fog  Heavy snow  Heavy precipitations  Wind > 20 kt
SIGMETs :     Misc.  Thunderstorms  Icing  Turbulence  Mountain Waves  Volcanic Ashes







- Airport Elevation : 433 ft
- Download approach charts


LFOC - Chateaudun

CURRENT METAR :
  • 241130Z AUTO 20013KT 9999 SCT018 BKN031 BKN039 12/10 Q0999 TEMPO 20015G25KT 3000 -TSRA BKN008 BKN035CB

EXPIRED METARs :
  • 241100Z AUTO 20014KT 9999 -DZ FEW014 SCT020 OVC036 12/09 Q0999 TEMPO 20015G25KT 3000 -TSRA BKN008 BKN035CB
  • 241030Z AUTO 20014KT 9999 SCT013 BKN021 BKN029 11/09 Q0999 TEMPO 20015G25KT 3000 -TSRA BKN008 BKN035CB
  • 241000Z AUTO 20016KT 9999 SCT017 OVC025 11/09 Q0998 TEMPO RA BKN008 BKN020TCU
  • 240930Z AUTO 20012KT 9999 BKN013 BKN018 BKN023 11/09 Q0998 TEMPO RA BKN008 BKN020TCU
  • 240900Z AUTO 20011KT 9999 -RA BKN012 BKN019 OVC028 11/10 Q0998 TEMPO RA BKN008 BKN020TCU

TAF TAF LFOC
Valid from the 24 at 09:00 until the 25 at 09:00 UTC


240800Z 2409/2509 21012KT 9999 BKN013 BKN025
TEMPO 2409/2412 5000 RA BKN008 BKN020TCU
PROB40
TEMPO 2412/2416 20015G25KT 3000 -TSRA BKN008 BKN035CB
No reported NOTAMs for that airfield.
1 SIGMET reported for the Paris FIR (LFFF) :
 
Severe turbulence
LFFF SIGMET 4 VALID 241100/241500 LFPW
LFFF PARIS FIR/UIR SEV TURB FCST WI N4900 E00445 - N4830 E00530 - N4730 E00415 - N4630 E00445 - N4630 E00330 - N4900 E00415 - N4900 E00445 SFC/FL100 STNR INTSF=



MET'MAP, your aeronautical weather chart ! - Copyright ORBIFLY December 2007 - Disclaimer

ORBIFLY MET'MAP TEAM :

Programming & Development : Alexandra Zaïnal
Concept & Development : Baudouin d'Aumeries
Co-Development & Prog : Marc-Olivier Méhu
Technical & hardware support : Manuel Goepfert

Contact : metmap@orbifly.com




SOURCES & CREDITS :

   NOAA